Black Brook, Wisconsin
Current Conditions -  °F | °C
As of 3:35 AM on Monday 20 Oct 2014 (Local Time) from KRNH Reporting Station
Clear Clear  
Wind Chill: 42°   Ceiling: Unl
Heat Index: 46°   Visibility: 10mi
Dew Point: 40°   Wind: 6mph
Humidity: 81%   Direction: 300°WNW
Pressure: 29.89"   Gusts: NA
Location:  45.2417°N, 92.2543°W
Report Text: KRNH 200835Z AUTO 30005KT 10SM CLR 08/05 A2989 RMK AO2 T00750045
Loading
Personal Weather Stations






























Interactive Weather Map
Tropical Storm Tracking
New forecast layout! Learn more

10-Day Weather Forecast

Advertisements
Track Severe Weather on mobile